Genco Leader — VRYR8 — position and weather

sailwx.info

Track history (hours):
 
Tides and Currents Weather Stations Pressure Air Temp Water Temp Dewpoint Dewpoint Depression Visibility Wind Speed Wind Dir Waves Ship Positions

Genco Leader

Last reported at 2014-Jul-31 21:31 UTC. Time now 2014-Jul-31 21:38 UTC.
Position N 51°54' E 003°31'.

Length 225 m; draft 14 m.

Type: Cargo ship. MMSI: 477132000.

Date/timePositionNaut miles runAvg speedWind from/ knotsBaromVisibWave heightAir tempDewpointWater temp
2014-Jul-31 21:31N 51°54' E 003°31'0 0.2
2014-Jul-31 20:31N 51°54' E 003°31'0 0.1
2014-Jul-31 19:33N 51°54' E 003°31'0 0.0
2014-Jul-31 18:30N 51°54' E 003°31'0 0.0
2014-Jul-31 17:33N 51°54' E 003°31'0 0.0
2014-Jul-31 16:33N 51°54' E 003°31'0 0.0
2014-Jul-31 15:33N 51°54' E 003°31'0 0.2
2014-Jul-31 14:33N 51°54' E 003°31'3 3.0
2014-Jul-31 13:33N 51°53' E 003°27'7 6.5
2014-Jul-31 12:31N 51°52' E 003°16'7 6.8
2014-Jul-31 11:33N 51°51' E 003°05'7 6.6
2014-Jul-31 10:31N 51°50' E 002°54'7 6.6
2014-Jul-31 09:24N 51°47' E 002°43'8 6.8
2014-Jul-31 08:13N 51°43' E 002°33'5 7.7
2014-Jul-31 07:33N 51°39' E 002°27'8 8.3
2014-Jul-31 06:32N 51°32' E 002°18'9 8.9
2014-Jul-31 05:29N 51°24' E 002°11'10 9.7
2014-Jul-31 04:29N 51°15' E 002°06'1213.1
2014-Jul-31 03:33N 51°08' E 001°49'1514.6
2014-Jul-31 02:33N 50°58' E 001°33'1714.3
2014-Jul-31 01:23N 50°43' E 001°23'1213.1
2014-Jul-31 00:28N 50°34' E 001°09'1412.9
2014-Jul-30 23:25N 50°28' E 000°50'1213.5
2014-Jul-30 22:33N 50°24' E 000°33'1413.5
2014-Jul-30 21:33N 50°21' E 000°13'5811.0
2014-Jul-30 16:17N 50°06' W 001°15'19 8.9
2014-Jul-30 14:09N 50°01' W 001°43'1110.4
2014-Jul-30 13:08N 49°58' W 001°59'  
Track history (hours):
 
Tides and Currents Weather Stations Pressure Air Temp Water Temp Dewpoint Dewpoint Depression Visibility Wind Speed Wind Dir Waves Ship Positions

Genco Leader

Last reported at 2014-Jul-31 21:31 UTC. Time now 2014-Jul-31 21:38 UTC.
Position N 51°54' E 003°31'.

Length 225 m; draft 14 m.

Type: Cargo ship. MMSI: 477132000.

Date/timePositionNaut miles runAvg speedWind from/ knotsBaromVisibWave heightAir tempDewpointWater temp
2014-Jul-31 21:31N 51°54' E 003°31'0 0.2
2014-Jul-31 20:31N 51°54' E 003°31'0 0.1
2014-Jul-31 19:33N 51°54' E 003°31'0 0.0
2014-Jul-31 18:30N 51°54' E 003°31'0 0.0
2014-Jul-31 17:33N 51°54' E 003°31'0 0.0
2014-Jul-31 16:33N 51°54' E 003°31'0 0.0
2014-Jul-31 15:33N 51°54' E 003°31'0 0.2
2014-Jul-31 14:33N 51°54' E 003°31'3 3.0
2014-Jul-31 13:33N 51°53' E 003°27'7 6.5
2014-Jul-31 12:31N 51°52' E 003°16'7 6.8
2014-Jul-31 11:33N 51°51' E 003°05'7 6.6
2014-Jul-31 10:31N 51°50' E 002°54'7 6.6
2014-Jul-31 09:24N 51°47' E 002°43'8 6.8
2014-Jul-31 08:13N 51°43' E 002°33'5 7.7
2014-Jul-31 07:33N 51°39' E 002°27'8 8.3
2014-Jul-31 06:32N 51°32' E 002°18'9 8.9
2014-Jul-31 05:29N 51°24' E 002°11'10 9.7
2014-Jul-31 04:29N 51°15' E 002°06'1213.1
2014-Jul-31 03:33N 51°08' E 001°49'1514.6
2014-Jul-31 02:33N 50°58' E 001°33'1714.3
2014-Jul-31 01:23N 50°43' E 001°23'1213.1
2014-Jul-31 00:28N 50°34' E 001°09'1412.9
2014-Jul-30 23:25N 50°28' E 000°50'1213.5
2014-Jul-30 22:33N 50°24' E 000°33'1413.5
2014-Jul-30 21:33N 50°21' E 000°13'5811.0
2014-Jul-30 16:17N 50°06' W 001°15'19 8.9
2014-Jul-30 14:09N 50°01' W 001°43'1110.4
2014-Jul-30 13:08N 49°58' W 001°59'  

Dump ship's entire track history